Time;durP1;ratioP1;P1;durP2;ratioP2;P2;SDS_P1;SDS_P2;PMS_P1;PMS_P2;Temp;Humidity;BMP_temperature;BMP_pressure;BME280_temperature;BME280_humidity;BME280_pressure;Samples;Min_cycle;Max_cycle;Signal;HPM_P1;HPM_P2
2022/06/24 00:02:01;;;;;;;11.80;6.90;;;;;;;;;;5197241;28;20030;-79
2022/06/24 00:04:33;;;;;;;12.20;5.50;;;;;;;;;;5191588;28;20181;-78
2022/06/24 00:07:14;;;;;;;13.52;6.03;;;;;;;;;;5200185;28;20101;-78
2022/06/24 00:09:45;;;;;;;15.32;7.47;;;;;;;;;;5189436;28;20033;-78
2022/06/24 00:12:18;;;;;;;16.45;7.50;;;;;;;;;;5201377;28;20521;-79
2022/06/24 00:14:56;;;;;;;21.85;8.43;;;;;;;;;;5209794;28;20461;-79
2022/06/24 00:17:32;;;;;;;48.85;12.98;;;;;;;;;;5192624;28;20161;-80
2022/06/24 00:20:15;;;;;;;35.75;14.88;;;;;;;;;;5211405;28;20496;-79
2022/06/24 00:22:48;;;;;;;25.20;15.70;;;;;;;;;;5191748;28;20052;-79
2022/06/24 00:25:20;;;;;;;25.03;15.70;;;;;;;;;;5203944;28;20026;-79
2022/06/24 00:27:58;;;;;;;20.13;17.47;;;;;;;;;;5208068;28;20113;-79
2022/06/24 00:30:34;;;;;;;25.67;18.00;;;;;;;;;;5209407;28;20459;-79
2022/06/24 00:33:10;;;;;;;21.83;17.20;;;;;;;;;;5190742;28;20046;-79
2022/06/24 00:35:43;;;;;;;23.60;18.77;;;;;;;;;;5190911;28;20366;-80
2022/06/24 00:38:24;;;;;;;16.58;14.85;;;;;;;;;;5207347;28;20566;-80
2022/06/24 00:41:06;;;;;;;18.37;12.40;;;;;;;;;;5191797;28;20113;-80
2022/06/24 00:43:42;;;;;;;16.93;12.33;;;;;;;;;;5225379;28;20053;-80
2022/06/24 00:46:22;;;;;;;18.10;12.53;;;;;;;;;;5208998;28;20029;-80
2022/06/24 00:48:54;;;;;;;17.93;11.87;;;;;;;;;;5209092;28;20026;-79
2022/06/24 00:51:36;;;;;;;15.90;9.57;;;;;;;;;;5205588;28;20021;-81
2022/06/24 00:54:09;;;;;;;9.50;7.40;;;;;;;;;;5199206;28;20033;-81
2022/06/24 00:56:40;;;;;;;9.33;7.70;;;;;;;;;;5204385;28;20548;-81
2022/06/24 00:59:12;;;;;;;8.73;4.77;;;;;;;;;;5206432;28;20033;-81
2022/06/24 01:01:43;;;;;;;6.30;3.90;;;;;;;;;;5203851;28;20232;-80
2022/06/24 01:04:15;;;;;;;8.00;3.80;;;;;;;;;;5195834;28;20023;-81
2022/06/24 01:06:46;;;;;;;5.30;2.67;;;;;;;;;;5228674;23;20098;-81
2022/06/24 01:09:19;;;;;;;3.30;2.57;;;;;;;;;;5233192;28;20029;-81
2022/06/24 01:11:51;;;;;;;6.93;2.60;;;;;;;;;;5232780;28;20033;-81
2022/06/24 01:14:22;;;;;;;3.87;2.43;;;;;;;;;;5230994;28;20033;-81
2022/06/24 01:16:54;;;;;;;4.33;2.10;;;;;;;;;;5233548;28;20140;-81
2022/06/24 01:19:26;;;;;;;6.07;2.30;;;;;;;;;;5231574;28;20108;-81
2022/06/24 01:21:57;;;;;;;3.40;1.63;;;;;;;;;;5231115;28;20017;-81
2022/06/24 01:24:28;;;;;;;4.73;1.80;;;;;;;;;;5230613;28;20022;-80
2022/06/24 01:27:00;;;;;;;5.43;2.03;;;;;;;;;;5229647;28;20117;-80
2022/06/24 01:29:31;;;;;;;3.40;1.50;;;;;;;;;;5229314;28;20010;-80
2022/06/24 01:32:02;;;;;;;4.67;2.20;;;;;;;;;;5230427;28;20058;-80
2022/06/24 01:34:34;;;;;;;2.87;1.60;;;;;;;;;;5230880;28;20040;-80
2022/06/24 01:37:05;;;;;;;4.13;1.50;;;;;;;;;;5230781;28;20109;-80
2022/06/24 01:39:36;;;;;;;4.43;1.70;;;;;;;;;;5229751;28;20022;-80
2022/06/24 01:42:07;;;;;;;6.63;1.50;;;;;;;;;;5231118;28;20029;-80
2022/06/24 01:44:39;;;;;;;3.50;1.87;;;;;;;;;;5230576;28;20079;-80
2022/06/24 01:47:10;;;;;;;6.03;1.23;;;;;;;;;;5230313;28;20021;-80
2022/06/24 01:49:41;;;;;;;3.43;1.47;;;;;;;;;;5230680;28;20025;-79
2022/06/24 01:52:12;;;;;;;3.40;1.20;;;;;;;;;;5230160;28;20033;-80
2022/06/24 01:54:43;;;;;;;3.53;1.20;;;;;;;;;;5229943;28;20479;-80
2022/06/24 01:57:15;;;;;;;4.07;1.20;;;;;;;;;;5229951;28;20029;-80
2022/06/24 01:59:46;;;;;;;3.07;1.00;;;;;;;;;;5230457;28;20029;-80
2022/06/24 02:02:17;;;;;;;4.33;1.07;;;;;;;;;;5230748;28;20034;-80
2022/06/24 02:04:48;;;;;;;1.83;0.90;;;;;;;;;;5230000;28;20033;-81
2022/06/24 02:07:20;;;;;;;3.30;0.97;;;;;;;;;;5230560;28;20021;-79
2022/06/24 02:15:31;;;;;;;4.67;0.90;;;;;;;;;;5230740;28;20483;-80
2022/06/24 02:18:02;;;;;;;2.80;1.10;;;;;;;;;;5230413;28;20025;-80
2022/06/24 02:20:34;;;;;;;1.87;0.80;;;;;;;;;;5230247;28;20727;-80
2022/06/24 02:23:05;;;;;;;2.87;1.20;;;;;;;;;;5229095;28;20108;-80
2022/06/24 02:25:36;;;;;;;4.20;1.30;;;;;;;;;;5228542;28;20554;-80
2022/06/24 02:28:07;;;;;;;1.97;0.90;;;;;;;;;;5228426;28;20021;-79
2022/06/24 02:30:39;;;;;;;2.13;1.10;;;;;;;;;;5229952;28;20057;-79
2022/06/24 02:33:10;;;;;;;4.77;1.37;;;;;;;;;;5230039;28;20109;-81
2022/06/24 02:35:41;;;;;;;2.80;1.33;;;;;;;;;;5230470;28;20025;-78
2022/06/24 02:38:13;;;;;;;2.60;1.37;;;;;;;;;;5228758;28;20591;-78
2022/06/24 02:40:51;;;;;;;3.27;1.10;;;;;;;;;;5229307;28;20033;-80
2022/06/24 02:43:33;;;;;;;1.47;1.13;;;;;;;;;;5229688;28;20422;-78
2022/06/24 02:46:06;;;;;;;3.07;1.10;;;;;;;;;;5228851;28;20022;-79
2022/06/24 02:48:38;;;;;;;2.07;1.10;;;;;;;;;;5231679;28;20024;-79
2022/06/24 02:51:10;;;;;;;3.93;1.97;;;;;;;;;;5234180;28;20021;-80
2022/06/24 02:53:43;;;;;;;2.47;1.37;;;;;;;;;;5233377;28;20034;-80
2022/06/24 02:56:15;;;;;;;3.70;1.40;;;;;;;;;;5234211;28;20542;-79
2022/06/24 02:58:46;;;;;;;3.97;1.53;;;;;;;;;;5213670;28;20029;-81
2022/06/24 03:01:17;;;;;;;3.27;1.20;;;;;;;;;;5232075;28;20021;-78
2022/06/24 03:03:48;;;;;;;3.10;2.17;;;;;;;;;;5233655;28;20024;-78
2022/06/24 03:06:19;;;;;;;2.33;1.47;;;;;;;;;;5233112;28;20033;-78
2022/06/24 03:08:51;;;;;;;3.23;1.67;;;;;;;;;;5231852;28;20154;-78
2022/06/24 03:11:22;;;;;;;7.00;1.63;;;;;;;;;;5222387;28;20033;-78
2022/06/24 03:13:53;;;;;;;2.43;1.63;;;;;;;;;;5216397;28;20037;-79
2022/06/24 03:16:24;;;;;;;3.38;1.78;;;;;;;;;;5234164;28;20060;-79
2022/06/24 03:18:55;;;;;;;3.27;1.70;;;;;;;;;;5233197;28;20018;-79
2022/06/24 03:21:26;;;;;;;4.70;1.67;;;;;;;;;;5232329;28;20029;-80
2022/06/24 03:23:57;;;;;;;2.32;1.58;;;;;;;;;;5232292;28;20498;-79
2022/06/24 03:26:29;;;;;;;2.97;1.60;;;;;;;;;;5233143;28;20379;-80
2022/06/24 03:29:00;;;;;;;3.40;1.74;;;;;;;;;;5233043;28;20068;-79
2022/06/24 03:31:31;;;;;;;2.85;1.75;;;;;;;;;;5231925;28;20025;-79
2022/06/24 03:34:02;;;;;;;2.57;2.00;;;;;;;;;;5231496;28;20562;-79
2022/06/24 03:36:33;;;;;;;3.23;1.80;;;;;;;;;;5233638;28;20037;-79
2022/06/24 03:39:04;;;;;;;3.57;2.17;;;;;;;;;;5232544;28;20033;-79
2022/06/24 03:41:36;;;;;;;5.17;2.83;;;;;;;;;;5231897;28;21183;-79
2022/06/24 03:44:07;;;;;;;3.33;2.20;;;;;;;;;;5232022;28;20119;-79
2022/06/24 03:46:38;;;;;;;4.10;2.48;;;;;;;;;;5232948;28;20017;-79
2022/06/24 03:49:09;;;;;;;5.17;2.60;;;;;;;;;;5232675;28;20049;-79
2022/06/24 03:51:41;;;;;;;3.50;2.40;;;;;;;;;;5232946;28;20025;-78
2022/06/24 03:54:12;;;;;;;2.73;2.47;;;;;;;;;;5231877;28;20044;-79
2022/06/24 03:56:43;;;;;;;4.80;2.53;;;;;;;;;;5232380;28;20131;-79
2022/06/24 03:59:14;;;;;;;4.03;2.37;;;;;;;;;;5231182;28;20101;-79
2022/06/24 04:01:45;;;;;;;3.87;3.13;;;;;;;;;;5232493;28;20025;-79
2022/06/24 04:04:17;;;;;;;3.40;2.50;;;;;;;;;;5231926;28;20414;-78
2022/06/24 04:06:48;;;;;;;3.47;2.70;;;;;;;;;;5232719;28;20064;-78
2022/06/24 04:09:19;;;;;;;3.83;2.77;;;;;;;;;;5231444;28;20033;-79
2022/06/24 04:11:51;;;;;;;5.27;3.03;;;;;;;;;;5232772;28;20028;-78
2022/06/24 04:17:12;;;;;;;5.47;3.00;;;;;;;;;;5232454;28;20904;-78
2022/06/24 04:19:43;;;;;;;6.20;3.30;;;;;;;;;;5232641;28;20029;-78
2022/06/24 04:22:14;;;;;;;7.90;4.03;;;;;;;;;;5229942;28;20024;-78
2022/06/24 04:24:45;;;;;;;8.00;3.98;;;;;;;;;;5232237;28;20036;-78
2022/06/24 04:27:16;;;;;;;6.23;3.57;;;;;;;;;;5232098;28;20024;-78
2022/06/24 04:29:48;;;;;;;6.57;3.90;;;;;;;;;;5232077;28;20471;-78
2022/06/24 04:32:19;;;;;;;6.37;4.13;;;;;;;;;;5231818;28;20024;-78
2022/06/24 04:34:50;;;;;;;4.60;3.60;;;;;;;;;;5230713;28;20029;-78
2022/06/24 04:37:21;;;;;;;8.83;4.73;;;;;;;;;;5229396;28;20396;-78
2022/06/24 04:39:52;;;;;;;7.47;5.70;;;;;;;;;;5231305;28;20033;-78
2022/06/24 04:42:24;;;;;;;8.60;5.03;;;;;;;;;;5231658;28;20101;-78
2022/06/24 04:44:55;;;;;;;5.03;4.50;;;;;;;;;;5231396;28;20029;-78
2022/06/24 04:47:27;;;;;;;5.93;4.70;;;;;;;;;;5223703;28;20096;-78
2022/06/24 04:49:58;;;;;;;5.40;4.83;;;;;;;;;;5232355;28;20472;-78
2022/06/24 04:52:29;;;;;;;6.20;5.30;;;;;;;;;;5230998;28;20020;-78
2022/06/24 04:55:00;;;;;;;8.57;5.33;;;;;;;;;;5229979;28;20053;-79
2022/06/24 04:57:32;;;;;;;5.60;4.93;;;;;;;;;;5231729;28;20021;-77
2022/06/24 05:00:03;;;;;;;10.07;6.23;;;;;;;;;;5231699;28;20369;-78
2022/06/24 05:02:35;;;;;;;6.37;5.70;;;;;;;;;;5231797;28;20017;-78
2022/06/24 05:05:07;;;;;;;8.43;5.50;;;;;;;;;;5213237;28;20041;-78
2022/06/24 05:07:39;;;;;;;7.83;6.40;;;;;;;;;;5228967;28;20022;-79
2022/06/24 05:10:11;;;;;;;6.87;5.27;;;;;;;;;;5230233;28;20403;-79
2022/06/24 05:12:42;;;;;;;7.40;5.77;;;;;;;;;;5229402;28;20045;-78
2022/06/24 05:15:13;;;;;;;9.60;6.70;;;;;;;;;;5234587;28;20583;-78
2022/06/24 05:17:44;;;;;;;7.67;6.77;;;;;;;;;;5232043;28;20547;-77
2022/06/24 05:20:15;;;;;;;8.30;6.97;;;;;;;;;;5231335;28;20057;-78
2022/06/24 05:22:46;;;;;;;8.17;7.27;;;;;;;;;;5229112;28;20018;-79
2022/06/24 05:25:18;;;;;;;8.10;7.17;;;;;;;;;;5230496;28;20029;-79
2022/06/24 05:27:49;;;;;;;8.70;7.13;;;;;;;;;;5216883;28;20076;-79
2022/06/24 05:30:20;;;;;;;8.03;6.80;;;;;;;;;;5224281;28;20018;-78
2022/06/24 05:32:51;;;;;;;8.70;7.50;;;;;;;;;;5206972;28;20030;-78
2022/06/24 05:35:22;;;;;;;8.87;7.20;;;;;;;;;;5209803;28;20041;-78
2022/06/24 05:37:54;;;;;;;12.62;7.38;;;;;;;;;;5203320;28;20054;-78
2022/06/24 05:40:25;;;;;;;8.80;7.67;;;;;;;;;;5213239;28;20036;-78
2022/06/24 05:42:56;;;;;;;8.40;6.70;;;;;;;;;;5211425;28;20293;-79
2022/06/24 05:45:27;;;;;;;9.00;7.10;;;;;;;;;;5211352;28;20021;-82
2022/06/24 05:47:58;;;;;;;11.53;7.73;;;;;;;;;;5211926;28;20033;-80
2022/06/24 05:50:29;;;;;;;7.82;7.04;;;;;;;;;;5200252;28;20026;-80
2022/06/24 05:55:59;;;;;;;10.57;8.47;;;;;;;;;;5192578;28;20041;-81
2022/06/24 05:58:30;;;;;;;12.87;9.50;;;;;;;;;;5207314;28;20584;-81
2022/06/24 06:01:06;;;;;;;16.13;10.70;;;;;;;;;;5206724;28;20029;-80
2022/06/24 06:03:38;;;;;;;19.47;11.33;;;;;;;;;;5204998;28;20017;-76
2022/06/24 06:06:09;;;;;;;17.20;11.90;;;;;;;;;;5206825;28;20060;-81
2022/06/24 06:08:40;;;;;;;17.33;13.17;;;;;;;;;;5207090;28;20114;-78
2022/06/24 06:11:12;;;;;;;22.10;16.13;;;;;;;;;;5224599;28;20021;-84
2022/06/24 06:13:43;;;;;;;19.90;15.57;;;;;;;;;;5232394;28;20048;-89
2022/06/24 06:16:15;;;;;;;19.47;17.00;;;;;;;;;;5231624;28;20036;-87
2022/06/24 06:18:47;;;;;;;27.70;18.27;;;;;;;;;;5231597;28;20060;-87
2022/06/24 06:21:18;;;;;;;31.53;20.10;;;;;;;;;;5231018;28;20024;-88
2022/06/24 06:23:50;;;;;;;32.33;20.50;;;;;;;;;;5230368;28;20633;-88
2022/06/24 06:26:21;;;;;;;33.00;23.50;;;;;;;;;;5229645;28;20057;-83
2022/06/24 06:28:53;;;;;;;32.77;24.77;;;;;;;;;;5228672;28;20033;-83
2022/06/24 06:31:24;;;;;;;35.93;23.90;;;;;;;;;;5228431;28;20160;-84
2022/06/24 06:33:56;;;;;;;29.73;23.20;;;;;;;;;;5228252;28;20132;-85
2022/06/24 06:36:27;;;;;;;25.17;21.57;;;;;;;;;;5229736;28;20024;-83
2022/06/24 06:38:58;;;;;;;22.00;19.43;;;;;;;;;;5228690;28;20037;-83
2022/06/24 06:41:29;;;;;;;28.97;18.63;;;;;;;;;;5228897;28;20151;-80
2022/06/24 06:44:00;;;;;;;21.27;18.97;;;;;;;;;;5228843;28;20022;-80
2022/06/24 06:46:32;;;;;;;25.63;19.30;;;;;;;;;;5227260;28;20025;-80
2022/06/24 06:49:03;;;;;;;27.50;20.43;;;;;;;;;;5210721;28;20024;-76
2022/06/24 06:51:34;;;;;;;25.00;19.32;;;;;;;;;;5227290;28;20493;-82
2022/06/24 06:54:05;;;;;;;24.00;20.60;;;;;;;;;;5229443;28;20519;-83
2022/06/24 06:56:36;;;;;;;20.97;18.97;;;;;;;;;;5233784;28;20012;-81
2022/06/24 06:59:08;;;;;;;24.40;19.80;;;;;;;;;;5229298;28;20507;-79
2022/06/24 07:01:39;;;;;;;26.00;20.10;;;;;;;;;;5229088;28;20028;-85
2022/06/24 07:04:10;;;;;;;21.20;19.24;;;;;;;;;;5228126;28;20049;-80
2022/06/24 07:06:41;;;;;;;24.60;22.20;;;;;;;;;;5229040;28;20049;-82
2022/06/24 07:09:12;;;;;;;24.73;22.37;;;;;;;;;;5227222;28;20456;-84
2022/06/24 07:11:44;;;;;;;25.30;22.83;;;;;;;;;;5229816;28;20637;-83
2022/06/24 07:14:15;;;;;;;24.10;21.53;;;;;;;;;;5227859;28;20029;-78
2022/06/24 07:16:46;;;;;;;23.10;20.80;;;;;;;;;;5229152;28;20491;-78
2022/06/24 07:19:17;;;;;;;23.48;21.00;;;;;;;;;;5228861;28;20104;-78
2022/06/24 07:21:49;;;;;;;24.80;22.30;;;;;;;;;;5228373;28;20018;-78
2022/06/24 07:24:20;;;;;;;26.17;23.57;;;;;;;;;;5243910;28;20065;-79
2022/06/24 07:26:51;;;;;;;24.30;21.77;;;;;;;;;;5229321;28;20072;-79
2022/06/24 07:29:23;;;;;;;23.93;21.67;;;;;;;;;;5228541;28;20096;-79
2022/06/24 07:31:54;;;;;;;24.64;22.14;;;;;;;;;;5228737;28;20018;-79
2022/06/24 07:34:26;;;;;;;24.04;21.70;;;;;;;;;;5229671;28;20029;-78
2022/06/24 07:37:01;;;;;;;25.87;23.20;;;;;;;;;;5231777;28;20029;-79
2022/06/24 07:39:32;;;;;;;25.67;22.87;;;;;;;;;;5232874;28;20559;-79
2022/06/24 07:42:05;;;;;;;26.70;24.20;;;;;;;;;;5232175;28;20210;-79
2022/06/24 07:44:40;;;;;;;31.00;28.00;;;;;;;;;;5232629;28;20037;-78
2022/06/24 07:47:11;;;;;;;30.67;27.87;;;;;;;;;;5231750;28;20427;-79
2022/06/24 07:49:42;;;;;;;34.03;30.87;;;;;;;;;;5232336;28;20045;-78
2022/06/24 07:52:13;;;;;;;35.50;32.07;;;;;;;;;;5231276;28;20038;-78
2022/06/24 07:54:45;;;;;;;39.33;35.23;;;;;;;;;;5231867;28;20040;-78
2022/06/24 07:57:16;;;;;;;42.13;37.73;;;;;;;;;;5232361;28;20080;-78
2022/06/24 07:59:47;;;;;;;42.60;38.27;;;;;;;;;;5231128;28;20835;-78
2022/06/24 08:02:18;;;;;;;47.43;41.30;;;;;;;;;;5231819;28;20020;-78
2022/06/24 08:04:50;;;;;;;44.23;39.83;;;;;;;;;;5231875;28;20024;-78
2022/06/24 08:07:21;;;;;;;46.47;41.67;;;;;;;;;;5231086;28;20486;-79
2022/06/24 08:09:52;;;;;;;46.03;41.23;;;;;;;;;;5230704;28;20021;-78
2022/06/24 08:12:23;;;;;;;45.07;40.77;;;;;;;;;;5231564;28;20032;-78
2022/06/24 08:14:54;;;;;;;42.33;38.13;;;;;;;;;;5231779;28;20064;-79
2022/06/24 08:17:25;;;;;;;40.36;36.52;;;;;;;;;;5231212;28;20025;-78
2022/06/24 08:19:57;;;;;;;37.50;33.70;;;;;;;;;;5232034;28;20104;-78
2022/06/24 08:22:28;;;;;;;33.83;30.33;;;;;;;;;;5231326;28;20096;-78
2022/06/24 08:25:01;;;;;;;31.37;28.57;;;;;;;;;;5230140;28;20018;-78
2022/06/24 08:27:32;;;;;;;31.33;28.13;;;;;;;;;;5231727;28;20460;-78
2022/06/24 08:30:03;;;;;;;26.73;24.23;;;;;;;;;;5230038;28;20018;-78
2022/06/24 08:32:34;;;;;;;26.23;23.93;;;;;;;;;;5231994;28;20055;-78
2022/06/24 08:35:06;;;;;;;30.47;21.23;;;;;;;;;;5233633;28;20079;-77
2022/06/24 08:37:37;;;;;;;18.77;16.90;;;;;;;;;;5231405;28;20100;-78
2022/06/24 08:40:09;;;;;;;18.90;17.30;;;;;;;;;;5231864;28;20099;-78
2022/06/24 08:42:43;;;;;;;19.13;17.13;;;;;;;;;;5231896;28;20060;-77
2022/06/24 08:45:14;;;;;;;17.77;16.38;;;;;;;;;;5230784;28;20112;-78
2022/06/24 08:47:47;;;;;;;21.63;19.50;;;;;;;;;;5231481;28;20101;-78
2022/06/24 08:50:18;;;;;;;19.48;17.67;;;;;;;;;;5231416;28;20376;-77
2022/06/24 08:52:51;;;;;;;19.98;17.85;;;;;;;;;;5230130;28;20035;-77
2022/06/24 08:55:22;;;;;;;20.27;18.27;;;;;;;;;;5230114;28;20308;-78
2022/06/24 08:57:53;;;;;;;21.95;19.95;;;;;;;;;;5229287;28;20021;-77
2022/06/24 09:00:25;;;;;;;25.17;23.00;;;;;;;;;;5229325;28;20022;-78
2022/06/24 09:02:56;;;;;;;24.60;22.38;;;;;;;;;;5231374;28;20484;-79
2022/06/24 09:05:27;;;;;;;24.02;21.77;;;;;;;;;;5230560;28;20045;-78
2022/06/24 09:08:09;;;;;;;24.20;22.15;;;;;;;;;;5228543;28;20112;-79
2022/06/24 09:10:41;;;;;;;24.80;22.58;;;;;;;;;;5230997;28;20061;-78
2022/06/24 09:13:19;;;;;;;24.58;22.23;;;;;;;;;;5230677;28;20040;-78
2022/06/24 09:15:53;;;;;;;20.60;18.70;;;;;;;;;;5230738;28;20017;-77
2022/06/24 09:18:25;;;;;;;20.80;18.90;;;;;;;;;;5228919;28;20869;-77
2022/06/24 09:20:57;;;;;;;22.08;20.20;;;;;;;;;;5229613;28;20110;-78
2022/06/24 09:23:28;;;;;;;21.63;19.60;;;;;;;;;;5229695;28;20025;-77
2022/06/24 09:26:03;;;;;;;18.75;17.05;;;;;;;;;;5230340;28;20029;-78
2022/06/24 09:28:35;;;;;;;14.63;13.13;;;;;;;;;;5230465;28;20454;-78
2022/06/24 09:31:07;;;;;;;14.65;13.25;;;;;;;;;;5230544;28;20147;-81
2022/06/24 09:33:40;;;;;;;12.85;11.65;;;;;;;;;;5227532;28;20041;-79
2022/06/24 09:36:12;;;;;;;12.60;11.43;;;;;;;;;;5229804;28;20021;-79
2022/06/24 09:38:53;;;;;;;11.23;10.10;;;;;;;;;;5229363;28;20120;-80
2022/06/24 09:41:26;;;;;;;11.27;10.40;;;;;;;;;;5209319;28;20021;-78
2022/06/24 09:43:58;;;;;;;10.20;9.30;;;;;;;;;;5208944;28;20461;-79
2022/06/24 09:46:29;;;;;;;10.52;9.52;;;;;;;;;;5209798;28;20018;-77
2022/06/24 09:49:04;;;;;;;8.35;7.47;;;;;;;;;;5209994;28;20477;-78
2022/06/24 09:51:36;;;;;;;7.97;7.18;;;;;;;;;;5208524;28;20886;-79
2022/06/24 09:54:07;;;;;;;6.82;6.20;;;;;;;;;;5208424;28;20037;-81
2022/06/24 09:56:38;;;;;;;7.18;6.47;;;;;;;;;;5209110;28;20508;-76
2022/06/24 10:02:00;;;;;;;6.60;5.38;;;;;;;;;;5220541;28;20443;-76
2022/06/24 10:04:32;;;;;;;6.25;5.25;;;;;;;;;;5230349;28;20030;-78
2022/06/24 10:07:03;;;;;;;7.75;6.55;;;;;;;;;;5232000;28;20073;-77
2022/06/24 10:09:35;;;;;;;7.55;6.78;;;;;;;;;;5229871;28;20112;-79
2022/06/24 10:12:07;;;;;;;9.35;6.60;;;;;;;;;;5228582;28;20021;-79
2022/06/24 10:14:39;;;;;;;7.38;5.55;;;;;;;;;;5229066;28;20049;-79
2022/06/24 10:17:11;;;;;;;7.13;6.43;;;;;;;;;;5228628;28;20021;-79
2022/06/24 10:19:43;;;;;;;8.48;6.43;;;;;;;;;;5229691;28;20052;-80
2022/06/24 10:22:33;;;;;;;7.43;6.50;;;;;;;;;;5228589;28;20038;-79
2022/06/24 10:25:05;;;;;;;11.27;6.75;;;;;;;;;;5228665;28;20616;-80
2022/06/24 10:27:54;;;;;;;4.93;3.95;;;;;;;;;;5229153;28;20034;-79
2022/06/24 10:30:53;;;;;;;3.22;1.73;;;;;;;;;;5227816;28;20017;-80
2022/06/24 10:33:27;;;;;;;5.00;1.27;;;;;;;;;;5228313;28;20650;-79
2022/06/24 10:36:03;;;;;;;8.85;2.45;;;;;;;;;;5232920;28;20472;-81
2022/06/24 10:38:38;;;;;;;5.75;2.30;;;;;;;;;;5227570;28;20437;-80
2022/06/24 10:41:13;;;;;;;5.88;2.00;;;;;;;;;;5226421;28;20014;-82
2022/06/24 10:43:44;;;;;;;6.43;1.90;;;;;;;;;;5227657;28;20022;-82
2022/06/24 10:46:16;;;;;;;4.35;2.00;;;;;;;;;;5228159;28;20067;-82
2022/06/24 10:48:53;;;;;;;4.15;1.77;;;;;;;;;;5228015;28;20021;-83
2022/06/24 10:51:28;;;;;;;3.78;2.00;;;;;;;;;;5227107;28;20040;-81
2022/06/24 10:54:02;;;;;;;4.80;2.60;;;;;;;;;;5226198;28;20040;-67
2022/06/24 10:56:33;;;;;;;;;;;;;;;;;;5217320;28;20684;-73
2022/06/24 10:59:04;;;;;;;7.95;3.88;;;;;;;;;;5228303;28;19909;-68
2022/06/24 11:01:39;;;;;;;5.00;3.42;;;;;;;;;;5229327;28;20276;-71
2022/06/24 11:04:15;;;;;;;7.05;3.05;;;;;;;;;;5229173;28;20018;-69
2022/06/24 11:07:06;;;;;;;5.50;3.05;;;;;;;;;;5225361;28;20486;-74
2022/06/24 11:09:37;;;;;;;4.65;3.15;;;;;;;;;;5240829;28;20026;-79
2022/06/24 11:12:28;;;;;;;3.45;2.63;;;;;;;;;;5212421;28;20044;-73
2022/06/24 11:15:05;;;;;;;5.15;2.05;;;;;;;;;;5211908;28;20067;-73
2022/06/24 11:17:41;;;;;;;3.58;1.80;;;;;;;;;;5237828;28;20030;-73
2022/06/24 11:20:13;;;;;;;3.13;2.05;;;;;;;;;;5232393;28;20060;-83
2022/06/24 11:22:47;;;;;;;2.30;1.50;;;;;;;;;;5230869;28;20025;-76
2022/06/24 11:25:29;;;;;;;3.17;1.40;;;;;;;;;;5226871;28;20534;-79
2022/06/24 11:28:15;;;;;;;2.05;1.10;;;;;;;;;;5229172;28;20013;-78
2022/06/24 11:30:47;;;;;;;1.75;1.00;;;;;;;;;;5231953;28;20018;-82
2022/06/24 11:33:19;;;;;;;2.30;1.20;;;;;;;;;;5227368;28;20399;-84
2022/06/24 11:35:50;;;;;;;2.63;1.13;;;;;;;;;;5225912;28;20111;-80
2022/06/24 11:38:22;;;;;;;1.02;0.80;;;;;;;;;;5228589;28;20076;-78
2022/06/24 11:40:54;;;;;;;1.90;0.98;;;;;;;;;;5229308;28;20014;-76
2022/06/24 11:43:28;;;;;;;2.58;1.00;;;;;;;;;;5230563;28;20064;-79
2022/06/24 11:46:00;;;;;;;;;;;;;;;;;;5229809;28;20017;-78
2022/06/24 11:48:31;;;;;;;2.00;0.80;;;;;;;;;;5230870;28;19905;-80
2022/06/24 11:51:02;;;;;;;0.93;0.73;;;;;;;;;;5230192;28;20028;-80
2022/06/24 11:53:34;;;;;;;1.00;0.70;;;;;;;;;;5229711;28;20048;-84
2022/06/24 11:56:05;;;;;;;0.80;0.72;;;;;;;;;;5230716;28;20021;-81
2022/06/24 11:58:36;;;;;;;2.15;1.20;;;;;;;;;;5231904;28;20021;-80
2022/06/24 12:01:08;;;;;;;3.38;1.30;;;;;;;;;;5230640;28;20049;-78
2022/06/24 12:03:39;;;;;;;2.00;1.23;;;;;;;;;;5231045;28;20171;-81
2022/06/24 12:06:10;;;;;;;1.90;1.30;;;;;;;;;;5229546;28;20133;-78
2022/06/24 12:08:41;;;;;;;2.60;1.63;;;;;;;;;;5230906;28;20079;-86
2022/06/24 12:11:14;;;;;;;2.13;1.90;;;;;;;;;;5230621;28;20621;-80
2022/06/24 12:13:58;;;;;;;2.88;1.60;;;;;;;;;;5229892;28;20021;-79
2022/06/24 12:16:48;;;;;;;2.13;1.27;;;;;;;;;;5231019;28;20577;-81
2022/06/24 12:19:19;;;;;;;2.42;1.50;;;;;;;;;;5230427;28;20032;-80
2022/06/24 12:22:01;;;;;;;2.53;1.40;;;;;;;;;;5227889;28;20025;-79
2022/06/24 12:24:32;;;;;;;1.73;1.35;;;;;;;;;;5213316;28;20543;-81
2022/06/24 12:27:04;;;;;;;2.88;1.10;;;;;;;;;;5230916;28;20113;-80
2022/06/24 12:29:40;;;;;;;2.15;1.05;;;;;;;;;;5230027;28;20116;-79
2022/06/24 12:32:11;;;;;;;1.42;0.88;;;;;;;;;;5231656;28;20040;-79
2022/06/24 12:34:52;;;;;;;2.45;1.00;;;;;;;;;;5230978;28;20033;-81
2022/06/24 12:37:23;;;;;;;2.00;0.88;;;;;;;;;;5230024;28;20381;-79
2022/06/24 12:39:54;;;;;;;1.73;1.10;;;;;;;;;;5229064;28;20036;-81
2022/06/24 12:42:26;;;;;;;2.85;1.00;;;;;;;;;;5230986;28;20468;-80
2022/06/24 12:44:59;;;;;;;2.28;1.35;;;;;;;;;;5230120;28;20041;-81
2022/06/24 12:50:53;;;;;;;3.60;1.48;;;;;;;;;;5230346;28;20029;-80
2022/06/24 12:53:17;;;;;;;1.73;1.10;;;;;;;;;;5230203;28;20045;-80
2022/06/24 12:55:49;;;;;;;1.73;1.10;;;;;;;;;;5231204;28;20021;-80
2022/06/24 12:58:20;;;;;;;1.65;1.10;;;;;;;;;;5222274;28;20045;-80
2022/06/24 13:00:52;;;;;;;2.85;1.35;;;;;;;;;;5210677;28;20920;-80
2022/06/24 13:03:23;;;;;;;1.90;1.15;;;;;;;;;;5210375;28;20025;-81
2022/06/24 13:05:54;;;;;;;1.42;1.08;;;;;;;;;;5207733;28;20492;-81
2022/06/24 13:08:26;;;;;;;3.10;1.20;;;;;;;;;;5210568;28;20081;-81
2022/06/24 13:10:57;;;;;;;2.20;1.50;;;;;;;;;;5209726;28;20072;-80
2022/06/24 13:13:28;;;;;;;1.90;1.33;;;;;;;;;;5209827;28;20036;-80
2022/06/24 13:15:59;;;;;;;4.32;1.35;;;;;;;;;;5209769;28;20025;-80
2022/06/24 13:18:31;;;;;;;2.42;1.40;;;;;;;;;;5209989;28;20467;-80
2022/06/24 13:21:02;;;;;;;2.80;1.50;;;;;;;;;;5208760;28;20100;-80
2022/06/24 13:23:34;;;;;;;4.30;1.90;;;;;;;;;;5224173;28;20018;-80
2022/06/24 13:26:05;;;;;;;6.35;1.90;;;;;;;;;;5209586;28;20018;-80
2022/06/24 13:28:37;;;;;;;4.43;1.80;;;;;;;;;;5219300;28;20029;-78
2022/06/24 13:31:08;;;;;;;2.33;1.80;;;;;;;;;;5229244;28;20026;-79
2022/06/24 13:33:39;;;;;;;2.30;1.30;;;;;;;;;;5229810;28;20037;-78
2022/06/24 13:36:10;;;;;;;3.78;1.42;;;;;;;;;;5228379;28;20526;-76
2022/06/24 13:38:41;;;;;;;3.53;1.55;;;;;;;;;;5229404;28;20036;-79
2022/06/24 13:41:13;;;;;;;3.20;1.65;;;;;;;;;;5228503;28;20479;-76
2022/06/24 13:43:45;;;;;;;4.38;2.25;;;;;;;;;;5230282;28;20032;-78
2022/06/24 13:46:16;;;;;;;5.95;2.47;;;;;;;;;;5229556;28;20114;-78
2022/06/24 13:48:47;;;;;;;1.65;1.17;;;;;;;;;;5229595;28;20079;-83
2022/06/24 13:51:19;;;;;;;3.45;1.58;;;;;;;;;;5228230;28;20060;-81
2022/06/24 13:53:50;;;;;;;1.67;1.10;;;;;;;;;;5226960;28;20179;-76
2022/06/24 13:56:21;;;;;;;1.92;1.10;;;;;;;;;;5227351;28;20021;-75
2022/06/24 13:58:52;;;;;;;1.35;0.80;;;;;;;;;;5226779;28;20483;-73
2022/06/24 14:01:24;;;;;;;2.33;0.80;;;;;;;;;;5226905;28;20552;-74
2022/06/24 14:03:55;;;;;;;2.78;0.95;;;;;;;;;;5225709;28;20552;-85
2022/06/24 14:06:26;;;;;;;1.27;1.00;;;;;;;;;;5226149;28;20089;-79
2022/06/24 14:08:58;;;;;;;0.96;0.74;;;;;;;;;;5216314;28;20033;-77
2022/06/24 14:11:29;;;;;;;1.00;0.70;;;;;;;;;;5208398;28;20716;-77
2022/06/24 14:14:00;;;;;;;3.13;0.50;;;;;;;;;;5206964;28;20037;-77
2022/06/24 14:16:32;;;;;;;0.80;0.63;;;;;;;;;;5208405;28;20071;-75
2022/06/24 14:19:03;;;;;;;3.42;0.93;;;;;;;;;;5210074;28;20049;-76
2022/06/24 14:21:35;;;;;;;1.13;0.70;;;;;;;;;;5208372;28;20026;-79
2022/06/24 14:24:51;;;;;;;2.72;0.80;;;;;;;;;;5209919;28;20030;-79
2022/06/24 14:26:58;;;;;;;0.80;0.68;;;;;;;;;;5203206;28;20117;-79
2022/06/24 14:29:30;;;;;;;1.08;0.70;;;;;;;;;;5213836;28;20026;-82
2022/06/24 14:32:01;;;;;;;3.05;0.70;;;;;;;;;;5210302;28;20030;-80
2022/06/24 14:34:32;;;;;;;3.00;0.80;;;;;;;;;;5215801;28;20118;-81
2022/06/24 14:40:10;;;;;;;0.90;0.70;;;;;;;;;;5228543;28;20030;-81
2022/06/24 14:40:13;;;;;;;2.95;1.02;;;;;;;;;;5226624;28;20302;-78
2022/06/24 14:42:44;;;;;;;2.30;0.95;;;;;;;;;;5227296;28;20025;-79
2022/06/24 14:45:15;;;;;;;1.48;0.78;;;;;;;;;;5230484;28;20110;-78
2022/06/24 14:47:47;;;;;;;1.42;0.73;;;;;;;;;;5231336;28;20027;-79
2022/06/24 14:50:18;;;;;;;1.95;0.68;;;;;;;;;;5231752;28;20051;-79
2022/06/24 14:52:49;;;;;;;1.20;0.70;;;;;;;;;;5231766;28;20010;-81
2022/06/24 14:55:22;;;;;;;1.52;0.90;;;;;;;;;;5232852;28;20105;-80
2022/06/24 14:57:53;;;;;;;2.75;0.90;;;;;;;;;;5233447;28;20381;-77
2022/06/24 15:00:26;;;;;;;2.58;0.90;;;;;;;;;;5231950;28;20032;-77
2022/06/24 15:02:57;;;;;;;2.05;0.63;;;;;;;;;;5230811;28;20024;-77
2022/06/24 15:05:28;;;;;;;1.22;0.60;;;;;;;;;;5231350;28;20152;-77
2022/06/24 15:07:59;;;;;;;3.15;0.73;;;;;;;;;;5232991;28;20009;-77
2022/06/24 15:10:30;;;;;;;3.03;0.70;;;;;;;;;;5232057;28;20068;-77
2022/06/24 15:13:02;;;;;;;3.33;0.55;;;;;;;;;;5231048;28;20025;-77
2022/06/24 15:15:33;;;;;;;2.65;0.82;;;;;;;;;;5231814;28;20010;-77
2022/06/24 15:18:04;;;;;;;0.88;0.70;;;;;;;;;;5232053;28;20079;-76
2022/06/24 15:20:36;;;;;;;1.25;0.93;;;;;;;;;;5230903;28;20101;-77
2022/06/24 15:23:07;;;;;;;3.25;1.23;;;;;;;;;;5224636;28;20021;-77
2022/06/24 15:25:38;;;;;;;1.90;0.60;;;;;;;;;;5214720;28;20029;-77